»·PEaware :: N14BY KSNA-KSBD

N14BY :: KSNA-KSBD

FLIGHT INFORMATION

Flight Status: Arrived
Operator: Privately registered:
United States
More flights under this callsign
Pilot: Brent Y. (14782)
Aircraft: CESSNA 172 SKYHAWK
(C172)
More flights by this aircraft type
Origin: KSNA John Wayne-Orange Co
United States
Destination: KSBD San Bernardino Intl
United States
More flights between these airports :: More routes between these airports
Route: +SLI V8 PDZ
File this flight plan on PilotEdge
Remarks: I4
Altitude:
(Current/Filed)
5,000ft
Speed:
(Current/Filed)
115kts
Departed: 19-Sep-18 09:10 PM
Arrived: 19-Sep-18 10:02 PM
Distance/Time
Traveled:
41nm/0:52
Distance/Time
To Go:
Arrived

Flight Plot

Page will automatically refresh every two minutes.


Map Options




Map Legend


Flown Route
Filed Route
Departure Airport
Arrival Airport
Navaid (VOR, NDB)
Fix

Horizontal Profiles

Position Reports

Time Latitude Longitude Heading Altitude Ground
Speed
19-Sep-18 20:59 33.666142 -117.873131 216 60ft 0kts
19-Sep-18 21:00 33.666142 -117.873131 216 60ft 0kts
19-Sep-18 21:01 33.666142 -117.873131 216 60ft 0kts
19-Sep-18 21:02 33.666142 -117.873131 216 60ft 0kts
19-Sep-18 21:03 33.666142 -117.873131 216 60ft 0kts
19-Sep-18 21:04 33.666142 -117.873131 216 60ft 0kts
19-Sep-18 21:05 33.666142 -117.873131 216 60ft 0kts
19-Sep-18 21:06 33.666142 -117.873131 216 60ft 0kts
19-Sep-18 21:07 33.666142 -117.873131 215 60ft 0kts
19-Sep-18 21:08 33.668962 -117.871142 44 60ft 25kts
19-Sep-18 21:09 33.673930 -117.867204 28 60ft 25kts
19-Sep-18 21:10 33.678159 -117.864522 27 60ft 30kts
19-Sep-18 21:11 33.680054 -117.863798 290 60ft 0kts
19-Sep-18 21:12 33.678855 -117.864969 207 60ft 50kts
19-Sep-18 21:13 33.664945 -117.875568 224 593ft 78kts
19-Sep-18 21:14 33.653592 -117.888657 219 1382ft 82kts
19-Sep-18 21:15 33.639488 -117.901051 212 2082ft 81kts
19-Sep-18 21:16 33.624892 -117.912697 226 2049ft 75kts
19-Sep-18 21:17 33.612737 -117.925026 217 2696ft 86kts
19-Sep-18 21:18 33.614765 -117.944908 316 3351ft 91kts
19-Sep-18 21:19 33.629692 -117.958075 327 4108ft 84kts
19-Sep-18 21:20 33.643097 -117.968959 323 4827ft 76kts
19-Sep-18 21:21 33.656797 -117.980819 323 5059ft 110kts
19-Sep-18 21:22 33.672962 -117.993646 330 5051ft 109kts
19-Sep-18 21:23 33.690436 -118.004628 332 5001ft 114kts
19-Sep-18 21:24 33.708642 -118.015397 333 5006ft 116kts
19-Sep-18 21:25 33.727681 -118.025334 338 5006ft 116kts
19-Sep-18 21:26 33.747144 -118.035124 336 5006ft 116kts
19-Sep-18 21:27 33.766033 -118.044983 336 5006ft 117kts
19-Sep-18 21:28 33.784115 -118.054082 348 5002ft 117kts
19-Sep-18 21:29 33.798736 -118.040029 75 5003ft 116kts
19-Sep-18 21:30 33.800959 -118.015407 86 5006ft 116kts
19-Sep-18 21:31 33.802132 -117.989988 86 5006ft 117kts
19-Sep-18 21:32 33.804738 -117.963778 69 5007ft 123kts
19-Sep-18 21:33 33.812845 -117.938633 68 5006ft 123kts
19-Sep-18 21:34 33.821302 -117.912675 68 5006ft 123kts
19-Sep-18 21:35 33.829433 -117.886553 69 5006ft 124kts
19-Sep-18 21:36 33.836314 -117.860241 73 5006ft 124kts
19-Sep-18 21:37 33.842303 -117.835900 73 5006ft 121kts
19-Sep-18 21:38 33.848274 -117.811750 72 5006ft 122kts
19-Sep-18 21:39 33.854671 -117.787887 71 5006ft 124kts
19-Sep-18 21:40 33.861246 -117.763019 71 5006ft 125kts
19-Sep-18 21:41 33.867601 -117.739021 71 5006ft 125kts
19-Sep-18 21:42 33.874111 -117.714497 71 5006ft 125kts
19-Sep-18 21:43 33.881128 -117.688125 71 5007ft 125kts
19-Sep-18 21:44 33.889863 -117.663426 49 5007ft 125kts
19-Sep-18 21:45 33.904371 -117.643858 47 5006ft 125kts
19-Sep-18 21:46 33.918963 -117.624327 47 5006ft 125kts
19-Sep-18 21:47 33.933761 -117.604557 47 5006ft 127kts
19-Sep-18 21:48 33.948666 -117.584676 47 5006ft 128kts
19-Sep-18 21:49 33.963764 -117.564556 47 5006ft 128kts
19-Sep-18 21:50 33.974176 -117.540593 67 5006ft 128kts
19-Sep-18 21:51 33.983018 -117.514405 67 4649ft 144kts
19-Sep-18 21:52 33.992628 -117.485805 67 4008ft 144kts
19-Sep-18 21:53 34.001899 -117.458219 67 3917ft 122kts
19-Sep-18 21:54 34.010717 -117.433422 59 3985ft 114kts
19-Sep-18 21:55 34.022991 -117.412112 53 4120ft 120kts
19-Sep-18 21:56 34.036133 -117.389829 53 4224ft 125kts
19-Sep-18 21:57 34.050421 -117.366048 52 3585ft 148kts
19-Sep-18 21:58 34.064699 -117.339103 64 2647ft 141kts
19-Sep-18 21:59 34.071981 -117.312493 71 2189ft 117kts
19-Sep-18 22:00 34.079036 -117.289232 69 1836ft 122kts
19-Sep-18 22:01 34.087107 -117.262161 70 1307ft 122kts
19-Sep-18 22:02 34.092834 -117.243164 69 1100ft 61kts
19-Sep-18 22:03 34.096718 -117.229982 67 1129ft 50kts
19-Sep-18 22:04 34.100085 -117.224962 59 1146ft 26kts

Navigation Log

Ident Type
Flight plan parsing failed, navigation log unavailable